createdAt,value
2023-02-21T00:02:37.211Z,101859.41
2023-02-21T00:05:22.805Z,101852.81
2023-02-21T00:08:07.831Z,101848.66
2023-02-21T00:10:53.003Z,101852.31
2023-02-21T00:13:37.993Z,101854.03
2023-02-21T00:16:23.043Z,101845.47
2023-02-21T00:19:07.919Z,101848.66
2023-02-21T00:21:52.934Z,101847.06
2023-02-21T00:24:38.581Z,101853.28
2023-02-21T00:27:23.642Z,101850.59
2023-02-21T00:30:10.138Z,101843.75
2023-02-21T00:32:55.435Z,101850.84
2023-02-21T00:35:40.667Z,101851.44
2023-02-21T00:38:26.710Z,101848.16
2023-02-21T00:41:12.249Z,101860.75
2023-02-21T00:43:57.272Z,101860.16
2023-02-21T00:46:42.098Z,101850.09
2023-02-21T00:49:28.099Z,101846.44
2023-02-21T00:52:13.576Z,101843.38
2023-02-21T00:54:58.882Z,101840.94
2023-02-21T00:57:44.555Z,101833.97
2023-02-21T01:00:36.321Z,101842.41
2023-02-21T01:03:21.958Z,101831.16
2023-02-21T01:06:07.260Z,101827.00
2023-02-21T01:08:52.231Z,101824.19
2023-02-21T01:11:39.214Z,101816.00
2023-02-21T01:14:28.151Z,101825.88
2023-02-21T01:17:13.965Z,101818.56
2023-02-21T01:20:00.593Z,101811.72
2023-02-21T01:22:46.116Z,101809.75
2023-02-21T01:25:32.378Z,101812.44
2023-02-21T01:28:17.764Z,101818.91
2023-02-21T01:31:02.899Z,101818.44
2023-02-21T01:33:47.926Z,101818.06
2023-02-21T01:36:33.245Z,101816.38
2023-02-21T01:39:18.282Z,101814.50
2023-02-21T01:42:03.576Z,101815.25
2023-02-21T01:44:57.644Z,101812.91
2023-02-21T01:47:43.772Z,101805.94
2023-02-21T01:50:45.283Z,101810.59
2023-02-21T01:53:41.624Z,101805.34
2023-02-21T01:56:28.212Z,101804.63
2023-02-21T01:59:17.765Z,101792.88
2023-02-21T02:02:11.558Z,101787.25
2023-02-21T02:04:57.483Z,101792.63
2023-02-21T02:07:42.393Z,101788.13
2023-02-21T02:10:29.470Z,101791.28
2023-02-21T02:13:20.304Z,101788.13
2023-02-21T02:15:56.920Z,101790.31
2023-02-21T02:18:36.902Z,101794.94
2023-02-21T02:21:42.298Z,101794.22
2023-02-21T02:24:38.031Z,101792.25
2023-02-21T02:27:22.792Z,101794.94
2023-02-21T02:30:03.383Z,101793.50
2023-02-21T02:32:51.896Z,101788.84
2023-02-21T02:35:26.056Z,101792.78
2023-02-21T02:37:58.155Z,101793.34
2023-02-21T02:40:27.247Z,101797.03
2023-02-21T02:43:28.550Z,101799.75
2023-02-21T02:46:02.345Z,101802.91
2023-02-21T02:48:36.429Z,101789.84
2023-02-21T02:51:07.461Z,101789.09
2023-02-21T02:53:35.947Z,101785.28
2023-02-21T02:56:05.798Z,101794.84
2023-02-21T02:58:37.687Z,101782.59
2023-02-21T03:01:17.354Z,101788.34
2023-02-21T03:04:11.411Z,101787.25
2023-02-21T03:07:02.700Z,101781.88
2023-02-21T03:10:10.733Z,101779.56
2023-02-21T03:12:48.988Z,101770.38
2023-02-21T03:15:25.439Z,101777.13
2023-02-21T03:17:58.557Z,101776.63
2023-02-21T03:20:27.453Z,101776.50
2023-02-21T03:22:55.893Z,101772.84
2023-02-21T03:25:24.475Z,101780.78
2023-02-21T03:27:53.543Z,101774.41
2023-02-21T03:30:20.272Z,101782.50
2023-02-21T03:32:51.504Z,101777.09
2023-02-21T03:35:19.981Z,101777.25
2023-02-21T03:37:49.691Z,101780.91
2023-02-21T03:40:18.404Z,101779.19
2023-02-21T03:42:44.953Z,101786.50
2023-02-21T03:45:11.459Z,101791.03
2023-02-21T03:47:37.928Z,101788.88
2023-02-21T03:50:05.095Z,101794.25
2023-02-21T03:52:31.584Z,101784.94
2023-02-21T03:54:58.134Z,101785.31
2023-02-21T03:57:24.715Z,101778.59
2023-02-21T03:59:51.923Z,101775.66
2023-02-21T04:02:19.386Z,101774.66
2023-02-21T04:04:48.581Z,101781.75
2023-02-21T04:07:16.821Z,101787.38
2023-02-21T04:09:43.341Z,101792.28
2023-02-21T04:12:10.794Z,101779.69
2023-02-21T04:14:37.713Z,101770.88
2023-02-21T04:17:04.625Z,101777.09
2023-02-21T04:19:31.541Z,101784.06
2023-02-21T04:21:58.186Z,101772.34
2023-02-21T04:24:24.683Z,101776.75
2023-02-21T04:26:51.238Z,101772.97
2023-02-21T04:29:17.841Z,101779.78
2023-02-21T04:31:44.443Z,101779.06
2023-02-21T04:34:12.361Z,101770.38
2023-02-21T04:36:39.559Z,101774.56
2023-02-21T04:39:07.334Z,101762.78
2023-02-21T04:41:34.300Z,101761.69
2023-02-21T04:44:00.814Z,101763.31
2023-02-21T04:46:27.337Z,101762.56
2023-02-21T04:48:53.937Z,101760.00
2023-02-21T04:51:23.145Z,101755.72
2023-02-21T04:53:50.269Z,101759.38
2023-02-21T04:56:19.287Z,101756.34
2023-02-21T04:58:46.236Z,101752.66
2023-02-21T05:01:14.121Z,101747.03
2023-02-21T05:03:40.873Z,101751.06
2023-02-21T05:06:07.995Z,101747.16
2023-02-21T05:08:36.242Z,101744.22
2023-02-21T05:11:03.218Z,101744.47
2023-02-21T05:13:29.686Z,101744.22
2023-02-21T05:15:56.248Z,101749.97
2023-02-21T05:18:23.297Z,101745.31
2023-02-21T05:20:50.270Z,101750.97
2023-02-21T05:23:19.048Z,101758.41
2023-02-21T05:25:48.607Z,101760.22
2023-02-21T05:28:15.342Z,101763.66
2023-02-21T05:30:41.870Z,101766.00
2023-02-21T05:33:08.414Z,101762.81
2023-02-21T05:35:34.904Z,101771.13
2023-02-21T05:38:01.369Z,101772.09
2023-02-21T05:40:27.877Z,101766.09
2023-02-21T05:42:54.337Z,101756.69
2023-02-21T05:45:21.031Z,101754.38
2023-02-21T05:47:47.466Z,101767.81
2023-02-21T05:50:13.910Z,101770.63
2023-02-21T05:52:40.384Z,101775.25
2023-02-21T05:55:06.996Z,101775.75
2023-02-21T05:57:38.891Z,101778.19
2023-02-21T06:00:06.148Z,101776.38
2023-02-21T06:02:32.654Z,101775.91
2023-02-21T06:04:59.177Z,101782.75
2023-02-21T06:07:25.826Z,101774.44
2023-02-21T06:09:52.337Z,101778.56
2023-02-21T06:12:18.824Z,101777.13
2023-02-21T06:14:45.220Z,101776.59
2023-02-21T06:17:11.672Z,101775.66
2023-02-21T06:19:38.112Z,101778.44
2023-02-21T06:22:04.532Z,101782.59
2023-02-21T06:24:30.950Z,101776.97
2023-02-21T06:26:57.481Z,101776.03
2023-02-21T06:29:23.897Z,101778.72
2023-02-21T06:31:50.441Z,101788.22
2023-02-21T06:34:16.938Z,101783.81
2023-02-21T06:36:43.475Z,101791.53
2023-02-21T06:39:10.887Z,101788.38
2023-02-21T06:41:37.368Z,101786.78
2023-02-21T06:44:03.870Z,101783.09
2023-02-21T06:46:30.870Z,101785.78
2023-02-21T06:48:57.780Z,101796.19
2023-02-21T06:51:29.524Z,101792.63
2023-02-21T06:53:57.693Z,101790.81
2023-02-21T06:56:24.251Z,101788.69
2023-02-21T06:58:50.732Z,101779.81
2023-02-21T07:01:20.233Z,101778.09
2023-02-21T07:03:47.705Z,101779.03
2023-02-21T07:06:14.363Z,101783.81
2023-02-21T07:08:41.126Z,101789.19
2023-02-21T07:11:07.630Z,101795.44
2023-02-21T07:13:34.216Z,101786.63
2023-02-21T07:16:02.710Z,101788.00
2023-02-21T07:18:29.452Z,101775.16
2023-02-21T07:20:55.970Z,101785.31
2023-02-21T07:23:22.540Z,101791.78
2023-02-21T07:25:49.074Z,101789.31
2023-02-21T07:28:15.652Z,101793.50
2023-02-21T07:30:42.277Z,101794.00
2023-02-21T07:33:08.835Z,101789.59
2023-02-21T07:35:35.335Z,101793.00
2023-02-21T07:38:01.856Z,101799.97
2023-02-21T07:40:28.296Z,101798.63
2023-02-21T07:42:55.294Z,101802.06
2023-02-21T07:45:21.943Z,101810.13
2023-02-21T07:47:51.065Z,101804.00
2023-02-21T07:50:17.679Z,101813.91
2023-02-21T07:52:45.474Z,101803.03
2023-02-21T07:55:13.471Z,101804.00
2023-02-21T07:57:39.921Z,101805.00
2023-02-21T08:00:07.025Z,101802.31
2023-02-21T08:02:33.470Z,101799.09
2023-02-21T08:05:00.042Z,101805.22
2023-02-21T08:07:26.544Z,101814.16
2023-02-21T08:09:53.051Z,101810.22
2023-02-21T08:12:19.520Z,101817.69
2023-02-21T08:14:46.022Z,101807.78
2023-02-21T08:17:14.032Z,101801.56
2023-02-21T08:19:40.584Z,101801.19
2023-02-21T08:22:07.023Z,101801.31
2023-02-21T08:24:33.454Z,101801.94
2023-02-21T08:26:59.960Z,101801.06
2023-02-21T08:29:26.522Z,101799.84
2023-02-21T08:31:53.015Z,101795.09
2023-02-21T08:34:19.458Z,101793.25
2023-02-21T08:36:45.972Z,101793.72
2023-02-21T08:39:12.548Z,101794.13
2023-02-21T08:41:44.816Z,101797.78
2023-02-21T08:44:16.223Z,101792.88
2023-02-21T08:46:43.502Z,101787.50
2023-02-21T08:49:10.754Z,101787.13
2023-02-21T08:51:37.529Z,101789.56
2023-02-21T08:54:04.246Z,101795.47
2023-02-21T08:56:30.991Z,101790.44
2023-02-21T08:58:57.997Z,101792.25
2023-02-21T09:01:25.402Z,101793.25
2023-02-21T09:03:51.927Z,101787.50
2023-02-21T09:06:18.829Z,101787.25
2023-02-21T09:08:45.382Z,101790.56
2023-02-21T09:11:11.874Z,101794.13
2023-02-21T09:13:38.512Z,101788.34
2023-02-21T09:16:05.368Z,101779.81
2023-02-21T09:18:32.295Z,101781.72
2023-02-21T09:20:59.291Z,101784.56
2023-02-21T09:23:28.204Z,101788.34
2023-02-21T09:25:55.096Z,101773.41
2023-02-21T09:28:22.379Z,101775.25
2023-02-21T09:30:49.516Z,101774.41
2023-02-21T09:33:16.678Z,101762.56
2023-02-21T09:35:43.157Z,101767.56
2023-02-21T09:38:09.741Z,101772.69
2023-02-21T09:40:39.148Z,101762.16
2023-02-21T09:43:11.774Z,101759.25
2023-02-21T09:45:38.783Z,101751.91
2023-02-21T09:48:14.134Z,101755.31
2023-02-21T09:50:50.196Z,101757.16
2023-02-21T09:53:22.460Z,101754.34
2023-02-21T09:55:51.772Z,101754.47
2023-02-21T09:58:20.355Z,101753.22
2023-02-21T10:00:47.638Z,101752.50
2023-02-21T10:03:32.793Z,101746.59
2023-02-21T10:06:12.226Z,101754.91
2023-02-21T10:08:53.788Z,101744.16
2023-02-21T10:11:31.356Z,101751.97
2023-02-21T10:14:23.225Z,101754.56
2023-02-21T10:17:31.484Z,101759.59
2023-02-21T10:20:04.343Z,101755.06
2023-02-21T10:22:37.866Z,101759.97
2023-02-21T10:25:21.431Z,101750.91
2023-02-21T10:27:48.248Z,101754.81
2023-02-21T10:30:40.625Z,101754.34
2023-02-21T10:33:08.284Z,101759.72
2023-02-21T10:35:38.707Z,101759.47
2023-02-21T10:38:13.226Z,101756.50
2023-02-21T10:41:02.411Z,101754.41
2023-02-21T10:43:36.783Z,101749.41
2023-02-21T10:46:13.536Z,101760.19
2023-02-21T10:48:42.880Z,101758.69
2023-02-21T10:51:12.442Z,101757.50
2023-02-21T10:53:41.380Z,101751.72
2023-02-21T10:56:18.990Z,101751.38
2023-02-21T10:58:57.632Z,101750.63
2023-02-21T11:01:26.888Z,101744.88
2023-02-21T11:03:56.832Z,101754.44
2023-02-21T11:06:39.922Z,101758.94
2023-02-21T11:09:42.962Z,101749.75
2023-02-21T11:12:26.874Z,101745.75
2023-02-21T11:14:53.359Z,101746.59
2023-02-21T11:17:34.060Z,101742.66
2023-02-21T11:20:09.674Z,101748.66
2023-02-21T11:22:38.994Z,101748.19
2023-02-21T11:25:18.815Z,101749.53
2023-02-21T11:27:46.551Z,101744.06
2023-02-21T11:30:21.793Z,101747.94
2023-02-21T11:32:57.088Z,101746.97
2023-02-21T11:35:34.849Z,101740.09
2023-02-21T11:38:08.547Z,101737.78
2023-02-21T11:40:45.767Z,101739.59
2023-02-21T11:43:17.858Z,101736.53
2023-02-21T11:46:18.465Z,101738.56
2023-02-21T11:48:58.517Z,101732.88
2023-02-21T11:51:43.559Z,101727.47
2023-02-21T11:54:10.790Z,101725.38
2023-02-21T11:56:43.252Z,101718.88
2023-02-21T11:59:17.762Z,101723.59
2023-02-21T12:02:18.587Z,101723.28
2023-02-21T12:05:06.620Z,101725.09
2023-02-21T12:08:17.631Z,101728.13
2023-02-21T12:10:49.834Z,101722.34
2023-02-21T12:13:34.982Z,101728.91
2023-02-21T12:16:28.183Z,101721.09
2023-02-21T12:19:25.592Z,101725.91
2023-02-21T12:22:11.442Z,101714.78
2023-02-21T12:25:02.507Z,101715.38
2023-02-21T12:28:06.973Z,101709.75
2023-02-21T12:30:36.663Z,101712.31
2023-02-21T12:33:16.231Z,101710.03
2023-02-21T12:36:02.144Z,101700.09
2023-02-21T12:38:53.695Z,101702.31
2023-02-21T12:41:38.717Z,101695.53
2023-02-21T12:44:14.190Z,101692.25
2023-02-21T12:46:43.413Z,101692.25
2023-02-21T12:49:46.525Z,101690.78
2023-02-21T12:52:22.777Z,101695.41
2023-02-21T12:54:58.822Z,101690.75
2023-02-21T12:57:32.927Z,101694.88
2023-02-21T13:00:12.644Z,101700.75
2023-02-21T13:02:57.928Z,101683.19
2023-02-21T13:05:39.968Z,101688.88
2023-02-21T13:08:13.968Z,101686.22
2023-02-21T13:10:52.934Z,101676.63
2023-02-21T13:13:25.956Z,101683.53
2023-02-21T13:15:54.114Z,101671.59
2023-02-21T13:18:32.460Z,101672.56
2023-02-21T13:20:58.805Z,101668.56
2023-02-21T13:24:02.614Z,101667.34
2023-02-21T13:26:50.523Z,101664.69
2023-02-21T13:29:28.404Z,101657.00
2023-02-21T13:32:06.495Z,101656.16
2023-02-21T13:34:45.249Z,101655.34
2023-02-21T13:37:19.351Z,101651.88
2023-02-21T13:39:54.113Z,101648.53
2023-02-21T13:42:24.617Z,101645.25
2023-02-21T13:45:11.846Z,101648.06
2023-02-21T13:47:53.907Z,101642.50
2023-02-21T13:50:45.196Z,101643.09
2023-02-21T13:53:57.972Z,101643.81
2023-02-21T13:56:41.756Z,101642.03
2023-02-21T13:59:23.160Z,101633.34
2023-02-21T14:01:50.715Z,101639.53
2023-02-21T14:04:45.067Z,101643.09
2023-02-21T14:07:11.554Z,101645.78
2023-02-21T14:09:41.532Z,101644.31
2023-02-21T14:12:08.992Z,101645.31
2023-02-21T14:14:39.651Z,101635.13
2023-02-21T14:17:09.554Z,101649.69
2023-02-21T14:19:39.014Z,101640.75
2023-02-21T14:22:10.552Z,101642.97
2023-02-21T14:24:40.692Z,101639.28
2023-02-21T14:29:37.481Z,101642.88
2023-02-21T14:32:04.409Z,101636.50
2023-02-21T14:34:49.929Z,101635.06
2023-02-21T14:37:31.586Z,101637.09
2023-02-21T14:40:02.352Z,101643.59
2023-02-21T14:43:02.514Z,101633.53
2023-02-21T14:45:50.109Z,101625.38
2023-02-21T14:48:38.509Z,101624.59
2023-02-21T14:51:19.943Z,101623.75
2023-02-21T14:53:57.130Z,101622.66
2023-02-21T14:56:55.869Z,101621.59
2023-02-21T14:59:35.416Z,101614.44
2023-02-21T15:02:15.389Z,101611.28
2023-02-21T15:04:49.730Z,101613.13
2023-02-21T15:07:48.615Z,101606.88
2023-02-21T15:10:17.497Z,101613.59
2023-02-21T15:12:59.124Z,101611.75
2023-02-21T15:15:32.869Z,101602.97
2023-02-21T15:18:01.900Z,101606.88
2023-02-21T15:20:30.305Z,101607.00
2023-02-21T15:23:15.713Z,101608.16
2023-02-21T15:25:44.784Z,101603.63
2023-02-21T15:28:31.593Z,101602.28
2023-02-21T15:31:06.123Z,101604.59
2023-02-21T15:33:35.477Z,101602.28
2023-02-21T15:36:06.917Z,101598.44
2023-02-21T15:38:52.454Z,101600.09
2023-02-21T15:41:35.848Z,101598.09
2023-02-21T15:44:21.161Z,101596.19
2023-02-21T15:46:54.008Z,101599.66
2023-02-21T15:50:02.385Z,101595.44
2023-02-21T15:52:35.490Z,101585.66
2023-02-21T15:55:20.566Z,101590.22
2023-02-21T15:57:58.366Z,101595.25
2023-02-21T16:00:36.478Z,101592.44
2023-02-21T16:03:29.322Z,101592.56
2023-02-21T16:06:19.689Z,101591.50
2023-02-21T16:09:21.930Z,101590.22
2023-02-21T16:11:52.240Z,101588.53
2023-02-21T16:14:55.087Z,101592.19
2023-02-21T16:17:21.687Z,101589.78
2023-02-21T16:19:56.077Z,101584.25
2023-02-21T16:22:29.743Z,101585.75
2023-02-21T16:25:11.716Z,101584.25
2023-02-21T16:27:53.094Z,101578.28
2023-02-21T16:30:25.687Z,101573.88
2023-02-21T16:32:54.497Z,101581.09
2023-02-21T16:35:24.008Z,101573.22
2023-02-21T16:37:53.678Z,101573.22
2023-02-21T16:40:27.431Z,101574.34
2023-02-21T16:42:55.867Z,101583.06
2023-02-21T16:45:23.542Z,101576.97
2023-02-21T16:47:55.260Z,101576.91
2023-02-21T16:50:32.567Z,101571.97
2023-02-21T16:53:00.354Z,101576.50
2023-02-21T16:55:27.582Z,101571.84
2023-02-21T16:57:59.244Z,101574.53
2023-02-21T17:00:25.847Z,101569.84
2023-02-21T17:02:53.455Z,101565.09
2023-02-21T17:05:21.627Z,101568.59
2023-02-21T17:07:49.753Z,101569.94
2023-02-21T17:10:16.272Z,101559.09
2023-02-21T17:12:42.772Z,101560.56
2023-02-21T17:15:10.990Z,101560.41
2023-02-21T17:17:38.749Z,101563.38
2023-02-21T17:20:07.046Z,101561.22
2023-02-21T17:22:33.751Z,101561.47
2023-02-21T17:25:00.440Z,101568.22
2023-02-21T17:27:27.189Z,101564.91
2023-02-21T17:29:53.646Z,101566.38
2023-02-21T17:32:20.222Z,101563.56
2023-02-21T17:34:46.731Z,101560.41
2023-02-21T17:37:13.358Z,101559.28
2023-02-21T17:39:39.986Z,101565.28
2023-02-21T17:42:06.461Z,101566.78
2023-02-21T17:44:33.558Z,101564.28
2023-02-21T17:47:00.058Z,101567.28
2023-02-21T17:49:28.042Z,101574.75
2023-02-21T17:51:55.068Z,101574.88
2023-02-21T17:54:24.035Z,101569.72
2023-02-21T17:56:51.413Z,101572.66
2023-02-21T17:59:18.753Z,101577.69
2023-02-21T18:01:45.553Z,101573.69
2023-02-21T18:04:13.710Z,101569.53
2023-02-21T18:06:41.382Z,101577.13
2023-02-21T18:09:08.065Z,101571.38
2023-02-21T18:11:37.806Z,101571.00
2023-02-21T18:14:05.218Z,101575.28
2023-02-21T18:16:32.118Z,101572.84
2023-02-21T18:18:58.841Z,101568.31
2023-02-21T18:21:27.351Z,101569.31
2023-02-21T18:23:54.237Z,101569.69
2023-02-21T18:26:20.697Z,101574.66
2023-02-21T18:28:47.247Z,101565.41
2023-02-21T18:31:18.808Z,101568.81
2023-02-21T18:33:46.220Z,101566.22
2023-02-21T18:36:12.686Z,101571.13
2023-02-21T18:38:40.740Z,101567.88
2023-02-21T18:41:12.630Z,101569.06
2023-02-21T18:43:40.673Z,101567.47
2023-02-21T18:46:13.739Z,101563.53
2023-02-21T18:48:45.596Z,101568.94
2023-02-21T18:51:13.549Z,101561.84
2023-02-21T18:53:42.756Z,101560.28
2023-02-21T18:56:13.955Z,101556.72
2023-02-21T18:58:40.571Z,101549.63
2023-02-21T19:01:09.226Z,101553.19
2023-02-21T19:03:36.781Z,101552.22
2023-02-21T19:06:03.507Z,101554.91
2023-02-21T19:08:29.995Z,101550.84
2023-02-21T19:10:56.468Z,101557.56
2023-02-21T19:13:22.993Z,101555.66
2023-02-21T19:15:49.404Z,101553.78
2023-02-21T19:18:16.861Z,101547.56
2023-02-21T19:20:43.747Z,101540.66
2023-02-21T19:23:11.970Z,101545.00
2023-02-21T19:25:38.468Z,101540.34
2023-02-21T19:28:06.848Z,101537.66
2023-02-21T19:30:36.497Z,101540.84
2023-02-21T19:33:05.690Z,101534.84
2023-02-21T19:35:33.886Z,101529.19
2023-02-21T19:38:04.472Z,101537.50
2023-02-21T19:40:31.177Z,101520.41
2023-02-21T19:42:57.739Z,101532.06
2023-02-21T19:45:24.292Z,101524.97
2023-02-21T19:47:50.834Z,101523.16
2023-02-21T19:50:17.653Z,101521.81
2023-02-21T19:52:46.198Z,101525.81
2023-02-21T19:55:13.696Z,101518.38
2023-02-21T19:57:40.102Z,101521.41
2023-02-21T20:00:10.842Z,101516.34
2023-02-21T20:02:37.387Z,101516.03
2023-02-21T20:05:04.369Z,101517.28
2023-02-21T20:07:30.797Z,101516.44
2023-02-21T20:09:57.344Z,101528.50
2023-02-21T20:12:23.890Z,101527.09
2023-02-21T20:14:50.719Z,101523.31
2023-02-21T20:17:18.080Z,101523.78
2023-02-21T20:19:44.977Z,101519.91
2023-02-21T20:22:11.793Z,101520.25
2023-02-21T20:24:38.384Z,101518.91
2023-02-21T20:27:04.914Z,101506.56
2023-02-21T20:29:31.386Z,101508.13
2023-02-21T20:31:58.895Z,101513.28
2023-02-21T20:34:25.472Z,101515.91
2023-02-21T20:36:51.881Z,101511.13
2023-02-21T20:39:28.389Z,101502.69
2023-02-21T20:41:55.675Z,101501.66
2023-02-21T20:44:22.555Z,101503.69
2023-02-21T20:46:49.248Z,101506.88
2023-02-21T20:49:15.922Z,101501.59
2023-02-21T20:51:43.594Z,101498.56
2023-02-21T20:54:19.705Z,101499.16
2023-02-21T20:56:47.536Z,101497.56
2023-02-21T20:59:21.144Z,101494.75
2023-02-21T21:01:48.647Z,101492.44
2023-02-21T21:04:20.862Z,101494.66
2023-02-21T21:06:48.173Z,101497.34
2023-02-21T21:09:17.807Z,101492.72
2023-02-21T21:11:47.841Z,101496.13
2023-02-21T21:14:16.303Z,101495.63
2023-02-21T21:16:43.091Z,101497.56
2023-02-21T21:19:09.717Z,101485.16
2023-02-21T21:21:37.803Z,101489.91
2023-02-21T21:24:07.148Z,101495.75
2023-02-21T21:26:34.013Z,101488.56
2023-02-21T21:29:01.401Z,101486.59
2023-02-21T21:31:27.960Z,101487.59
2023-02-21T21:33:56.393Z,101482.34
2023-02-21T21:36:23.335Z,101482.72
2023-02-21T21:38:49.733Z,101482.84
2023-02-21T21:41:16.487Z,101484.19
2023-02-21T21:43:45.833Z,101477.63
2023-02-21T21:46:13.859Z,101475.53
2023-02-21T21:48:44.523Z,101472.50
2023-02-21T21:51:11.669Z,101468.97
2023-02-21T21:53:40.012Z,101466.41
2023-02-21T21:56:11.397Z,101462.09
2023-02-21T21:58:37.921Z,101461.63
2023-02-21T22:01:07.692Z,101455.16
2023-02-21T22:03:34.719Z,101451.03
2023-02-21T22:06:01.384Z,101448.44
2023-02-21T22:08:28.514Z,101443.53
2023-02-21T22:10:55.021Z,101440.13
2023-02-21T22:13:21.790Z,101432.94
2023-02-21T22:15:48.879Z,101433.03
2023-02-21T22:18:19.753Z,101431.00
2023-02-21T22:20:50.261Z,101433.56
2023-02-21T22:23:21.204Z,101428.59
2023-02-21T22:25:48.356Z,101421.00
2023-02-21T22:28:14.955Z,101422.22
2023-02-21T22:30:41.739Z,101416.72
2023-02-21T22:33:13.490Z,101407.69
2023-02-21T22:35:41.397Z,101402.91
2023-02-21T22:38:14.103Z,101387.19
2023-02-21T22:40:41.837Z,101393.13
2023-02-21T22:43:09.084Z,101394.59
2023-02-21T22:45:36.526Z,101383.31
2023-02-21T22:48:05.822Z,101378.34
2023-02-21T22:50:36.834Z,101377.66
2023-02-21T22:53:08.285Z,101383.00
2023-02-21T22:55:37.262Z,101376.16
2023-02-21T22:58:07.368Z,101370.13
2023-02-21T23:00:35.079Z,101366.47
2023-02-21T23:03:13.185Z,101361.97
2023-02-21T23:05:45.223Z,101351.66
2023-02-21T23:08:16.819Z,101346.09
2023-02-21T23:10:43.703Z,101352.00
2023-02-21T23:13:18.196Z,101343.00
2023-02-21T23:15:45.918Z,101340.38
2023-02-21T23:18:20.637Z,101341.00
2023-02-21T23:20:49.379Z,101337.19
2023-02-21T23:23:15.818Z,101341.19
2023-02-21T23:25:42.303Z,101338.75
2023-02-21T23:28:12.203Z,101327.44
2023-02-21T23:30:43.153Z,101331.50
2023-02-21T23:33:22.990Z,101330.53
2023-02-21T23:35:51.889Z,101339.09
2023-02-21T23:38:22.563Z,101335.31
2023-02-21T23:40:58.082Z,101326.00
2023-02-21T23:43:29.202Z,101333.56
2023-02-21T23:45:58.033Z,101316.56
2023-02-21T23:48:24.602Z,101326.59
2023-02-21T23:50:51.667Z,101329.16
2023-02-21T23:53:22.659Z,101328.84
2023-02-21T23:55:49.776Z,101326.38
2023-02-21T23:58:19.052Z,101331.53
